ANZ645 NZQN-NZCH
Flight info
| Callsign | ANZ645 |
|---|---|
| Flight time | 0h 42m |
| Altitude | 23000 |
| Route | QN Q787 TIMJO Y153 DOPKI |
| Aircraft | A320/M-SDE3FGHIRWY/LB1 |
Departure
| Time | 2026-04-28 21:37 |
|---|---|
| Airport | Queenstown Airport (NZQN) |
Arrival
| Time | 2026-04-28 22:20 |
|---|---|
| Airport | Christchurch International Airport (NZCH) |
| Time | Latitude | Longitude | Altitude | Speed | Heading |
|---|---|---|---|---|---|
| 2026-04-28 21:24 | -45.02199 | 168.74121 | 1164 ft | 0 kts | 252° |
| 2026-04-28 21:30 | -45.02195 | 168.74140 | 1162 ft | 4 kts | 257° |
| 2026-04-28 21:30 | -45.02193 | 168.74176 | 1164 ft | 4 kts | 287° |
| 2026-04-28 21:30 | -45.02205 | 168.74201 | 1163 ft | 2 kts | 341° |
| 2026-04-28 21:30 | -45.02207 | 168.74201 | 1164 ft | 0 kts | 341° |
| 2026-04-28 21:33 | -45.02181 | 168.74189 | 1162 ft | 9 kts | 341° |
| 2026-04-28 21:34 | -45.02121 | 168.74149 | 1164 ft | 11 kts | 311° |
| 2026-04-28 21:34 | -45.02064 | 168.74053 | 1163 ft | 14 kts | 350° |
| 2026-04-28 21:34 | -45.01972 | 168.74104 | 1165 ft | 14 kts | 21° |
| 2026-04-28 21:34 | -45.01911 | 168.74145 | 1163 ft | 1 kts | 9° |
| 2026-04-28 21:35 | -45.01912 | 168.74126 | 1163 ft | 6 kts | 257° |
| 2026-04-28 21:35 | -45.01928 | 168.74034 | 1167 ft | 15 kts | 256° |
| 2026-04-28 21:35 | -45.01953 | 168.73883 | 1167 ft | 16 kts | 257° |
| 2026-04-28 21:35 | -45.01979 | 168.73713 | 1168 ft | 19 kts | 257° |
| 2026-04-28 21:36 | -45.02003 | 168.73581 | 1164 ft | 13 kts | 241° |
| 2026-04-28 21:36 | -45.02012 | 168.73520 | 1161 ft | 2 kts | 356° |
| 2026-04-28 21:36 | -45.02005 | 168.73538 | 1164 ft | 2 kts | 72° |
| 2026-04-28 21:36 | -45.02002 | 168.73561 | 1167 ft | 4 kts | 78° |
| 2026-04-28 21:37 | -45.01946 | 168.73915 | 1168 ft | 80 kts | 77° |
| 2026-04-28 21:37 | -45.01767 | 168.75051 | 1164 ft | 152 kts | 77° |
| 2026-04-28 21:37 | -45.01493 | 168.76642 | 1724 ft | 168 kts | 74° |
| 2026-04-28 21:37 | -45.01245 | 168.78275 | 2589 ft | 172 kts | 76° |
| 2026-04-28 21:38 | -45.01013 | 168.79950 | 3250 ft | 178 kts | 77° |
| 2026-04-28 21:38 | -45.00370 | 168.81476 | 3591 ft | 190 kts | 32° |
| 2026-04-28 21:38 | -44.99091 | 168.81875 | 3990 ft | 198 kts | 345° |
| 2026-04-28 21:38 | -44.97985 | 168.80751 | 4419 ft | 209 kts | 298° |
| 2026-04-28 21:39 | -44.97717 | 168.78608 | 4750 ft | 236 kts | 274° |
| 2026-04-28 21:39 | -44.97561 | 168.76235 | 5285 ft | 250 kts | 288° |
| 2026-04-28 21:39 | -44.96730 | 168.74081 | 6129 ft | 253 kts | 313° |
| 2026-04-28 21:39 | -44.95258 | 168.72726 | 7084 ft | 258 kts | 339° |
| 2026-04-28 21:40 | -44.93449 | 168.72560 | 7938 ft | 270 kts | 8° |
| 2026-04-28 21:40 | -44.91737 | 168.73797 | 8752 ft | 289 kts | 38° |
| 2026-04-28 21:40 | -44.90475 | 168.76085 | 9480 ft | 301 kts | 49° |
| 2026-04-28 21:40 | -44.89329 | 168.78541 | 10227 ft | 307 kts | 51° |
| 2026-04-28 21:41 | -44.88141 | 168.81174 | 10488 ft | 330 kts | 51° |
| 2026-04-28 21:41 | -44.86871 | 168.84003 | 10667 ft | 352 kts | 52° |
| 2026-04-28 21:41 | -44.85537 | 168.86959 | 11173 ft | 361 kts | 53° |
| 2026-04-28 21:41 | -44.84173 | 168.89976 | 11756 ft | 367 kts | 52° |
| 2026-04-28 21:42 | -44.82785 | 168.93018 | 12403 ft | 373 kts | 52° |
| 2026-04-28 21:42 | -44.81365 | 168.96111 | 13014 ft | 378 kts | 52° |
| 2026-04-28 21:42 | -44.79927 | 168.99236 | 13608 ft | 383 kts | 51° |
| 2026-04-28 21:42 | -44.78462 | 169.02412 | 14179 ft | 388 kts | 51° |
| 2026-04-28 21:43 | -44.76979 | 169.05611 | 14736 ft | 391 kts | 51° |
| 2026-04-28 21:43 | -44.75488 | 169.08825 | 15303 ft | 394 kts | 52° |
| 2026-04-28 21:43 | -44.73989 | 169.12056 | 15871 ft | 396 kts | 52° |
| 2026-04-28 21:43 | -44.72477 | 169.15313 | 16444 ft | 398 kts | 52° |
| 2026-04-28 21:44 | -44.70953 | 169.18589 | 17019 ft | 401 kts | 52° |
| 2026-04-28 21:44 | -44.69423 | 169.21879 | 17621 ft | 403 kts | 53° |
| 2026-04-28 21:44 | -44.67885 | 169.25183 | 18213 ft | 405 kts | 53° |
| 2026-04-28 21:44 | -44.66353 | 169.28460 | 18789 ft | 407 kts | 53° |
| 2026-04-28 21:45 | -44.64796 | 169.31785 | 19330 ft | 409 kts | 53° |
| 2026-04-28 21:45 | -44.63228 | 169.35130 | 19866 ft | 411 kts | 53° |
| 2026-04-28 21:45 | -44.61650 | 169.38494 | 20404 ft | 414 kts | 53° |
| 2026-04-28 21:45 | -44.60061 | 169.41873 | 20940 ft | 415 kts | 53° |
| 2026-04-28 21:46 | -44.58465 | 169.45266 | 21442 ft | 418 kts | 53° |
| 2026-04-28 21:46 | -44.56862 | 169.48674 | 21910 ft | 420 kts | 53° |
| 2026-04-28 21:46 | -44.55247 | 169.52106 | 22347 ft | 423 kts | 53° |
| 2026-04-28 21:46 | -44.53622 | 169.55562 | 22773 ft | 426 kts | 53° |
| 2026-04-28 21:47 | -44.51984 | 169.59045 | 23134 ft | 429 kts | 53° |
| 2026-04-28 21:47 | -44.50337 | 169.62542 | 23216 ft | 432 kts | 53° |
| 2026-04-28 21:47 | -44.48672 | 169.66063 | 23226 ft | 435 kts | 53° |
| 2026-04-28 21:47 | -44.46994 | 169.69600 | 23224 ft | 436 kts | 53° |
| 2026-04-28 21:48 | -44.45420 | 169.73233 | 23223 ft | 438 kts | 58° |
| 2026-04-28 21:48 | -44.43975 | 169.76987 | 23221 ft | 438 kts | 58° |
| 2026-04-28 21:48 | -44.42528 | 169.80737 | 23232 ft | 438 kts | 58° |
| 2026-04-28 21:48 | -44.41086 | 169.84478 | 23226 ft | 437 kts | 58° |
| 2026-04-28 21:49 | -44.39642 | 169.88228 | 23229 ft | 437 kts | 58° |
| 2026-04-28 21:49 | -44.38196 | 169.91966 | 23230 ft | 437 kts | 58° |
| 2026-04-28 21:49 | -44.36742 | 169.95703 | 23229 ft | 437 kts | 58° |
| 2026-04-28 21:49 | -44.35285 | 169.99437 | 23231 ft | 437 kts | 58° |
| 2026-04-28 21:50 | -44.33827 | 170.03167 | 23231 ft | 437 kts | 58° |
| 2026-04-28 21:50 | -44.32372 | 170.06895 | 23238 ft | 437 kts | 58° |
| 2026-04-28 21:50 | -44.30914 | 170.10634 | 23237 ft | 438 kts | 58° |
| 2026-04-28 21:50 | -44.29950 | 170.13108 | 23237 ft | 438 kts | 58° |
| 2026-04-28 21:51 | -44.28494 | 170.16849 | 23236 ft | 438 kts | 58° |
| 2026-04-28 21:51 | -44.26565 | 170.21795 | 23237 ft | 438 kts | 58° |
| 2026-04-28 21:51 | -44.25580 | 170.24309 | 23234 ft | 438 kts | 58° |
| 2026-04-28 21:51 | -44.23639 | 170.29247 | 23234 ft | 438 kts | 58° |
| 2026-04-28 21:52 | -44.22649 | 170.31763 | 23225 ft | 438 kts | 58° |
| 2026-04-28 21:52 | -44.21176 | 170.35492 | 23225 ft | 438 kts | 58° |
| 2026-04-28 21:52 | -44.19724 | 170.39169 | 23224 ft | 438 kts | 58° |
| 2026-04-28 21:52 | -44.18259 | 170.42888 | 23229 ft | 438 kts | 58° |
| 2026-04-28 21:53 | -44.16795 | 170.46602 | 23216 ft | 438 kts | 58° |
| 2026-04-28 21:53 | -44.15326 | 170.50315 | 23219 ft | 438 kts | 58° |
| 2026-04-28 21:53 | -44.13856 | 170.54027 | 23225 ft | 438 kts | 58° |
| 2026-04-28 21:53 | -44.12384 | 170.57734 | 23228 ft | 438 kts | 58° |
| 2026-04-28 21:54 | -44.10908 | 170.61443 | 23220 ft | 437 kts | 58° |
| 2026-04-28 21:54 | -44.09432 | 170.65150 | 23223 ft | 437 kts | 58° |
| 2026-04-28 21:54 | -44.07961 | 170.68853 | 23226 ft | 438 kts | 58° |
| 2026-04-28 21:54 | -44.06485 | 170.72560 | 23224 ft | 438 kts | 58° |
| 2026-04-28 21:55 | -44.05005 | 170.76264 | 23223 ft | 438 kts | 58° |
| 2026-04-28 21:55 | -44.03525 | 170.79966 | 23217 ft | 437 kts | 58° |
| 2026-04-28 21:55 | -44.02046 | 170.83668 | 23201 ft | 436 kts | 58° |
| 2026-04-28 21:55 | -44.00596 | 170.87304 | 22947 ft | 424 kts | 58° |
| 2026-04-28 21:56 | -43.99178 | 170.90846 | 22681 ft | 415 kts | 58° |
| 2026-04-28 21:56 | -43.97781 | 170.94322 | 22402 ft | 409 kts | 58° |
| 2026-04-28 21:56 | -43.96399 | 170.97753 | 22139 ft | 406 kts | 58° |
| 2026-04-28 21:56 | -43.95022 | 171.01172 | 21892 ft | 404 kts | 58° |
| 2026-04-28 21:57 | -43.93666 | 171.04531 | 21638 ft | 403 kts | 58° |
| 2026-04-28 21:57 | -43.92277 | 171.07960 | 21378 ft | 402 kts | 58° |
| 2026-04-28 21:57 | -43.90920 | 171.11299 | 21116 ft | 401 kts | 57° |
| 2026-04-28 21:57 | -43.89532 | 171.14705 | 20844 ft | 397 kts | 58° |
| 2026-04-28 21:58 | -43.88179 | 171.18035 | 20354 ft | 395 kts | 58° |
| 2026-04-28 21:58 | -43.86837 | 171.21343 | 19871 ft | 393 kts | 58° |
| 2026-04-28 21:58 | -43.85500 | 171.24642 | 19365 ft | 393 kts | 57° |
| 2026-04-28 21:58 | -43.84161 | 171.27939 | 18851 ft | 392 kts | 58° |
| 2026-04-28 21:59 | -43.82826 | 171.31223 | 18312 ft | 390 kts | 58° |
| 2026-04-28 21:59 | -43.81497 | 171.34489 | 17780 ft | 387 kts | 58° |
| 2026-04-28 21:59 | -43.80178 | 171.37730 | 17242 ft | 384 kts | 58° |
| 2026-04-28 22:00 | -43.77568 | 171.44125 | 16221 ft | 379 kts | 58° |
| 2026-04-28 22:00 | -43.76269 | 171.47293 | 15710 ft | 377 kts | 58° |
| 2026-04-28 22:00 | -43.74978 | 171.50439 | 15203 ft | 375 kts | 58° |
| 2026-04-28 22:00 | -43.73694 | 171.53567 | 14694 ft | 373 kts | 58° |
| 2026-04-28 22:01 | -43.72413 | 171.56686 | 14175 ft | 371 kts | 58° |
| 2026-04-28 22:01 | -43.71141 | 171.59791 | 13614 ft | 370 kts | 60° |
| 2026-04-28 22:01 | -43.70204 | 171.63091 | 13107 ft | 368 kts | 74° |
| 2026-04-28 22:01 | -43.69849 | 171.66540 | 12614 ft | 367 kts | 88° |
| 2026-04-28 22:02 | -43.69969 | 171.70093 | 12098 ft | 364 kts | 93° |
| 2026-04-28 22:02 | -43.70128 | 171.73572 | 11595 ft | 362 kts | 93° |
| 2026-04-28 22:02 | -43.70278 | 171.77026 | 11094 ft | 359 kts | 93° |
| 2026-04-28 22:02 | -43.70423 | 171.80480 | 10455 ft | 361 kts | 93° |
| 2026-04-28 22:03 | -43.70563 | 171.83899 | 10261 ft | 349 kts | 93° |
| 2026-04-28 22:03 | -43.70699 | 171.87186 | 10140 ft | 337 kts | 93° |
| 2026-04-28 22:03 | -43.70828 | 171.90362 | 10012 ft | 325 kts | 93° |
| 2026-04-28 22:03 | -43.70951 | 171.93429 | 9873 ft | 315 kts | 93° |
| 2026-04-28 22:04 | -43.71073 | 171.96407 | 9707 ft | 306 kts | 94° |
| 2026-04-28 22:04 | -43.71196 | 171.99325 | 9417 ft | 303 kts | 94° |
| 2026-04-28 22:04 | -43.71172 | 172.02216 | 9079 ft | 301 kts | 82° |
| 2026-04-28 22:04 | -43.70716 | 172.04990 | 8729 ft | 300 kts | 75° |
| 2026-04-28 22:05 | -43.70181 | 172.07773 | 8383 ft | 298 kts | 75° |
| 2026-04-28 22:05 | -43.69652 | 172.10535 | 8068 ft | 297 kts | 75° |
| 2026-04-28 22:05 | -43.69128 | 172.13281 | 7759 ft | 295 kts | 75° |
| 2026-04-28 22:05 | -43.68605 | 172.16013 | 7445 ft | 293 kts | 75° |
| 2026-04-28 22:06 | -43.68083 | 172.18721 | 7147 ft | 291 kts | 75° |
| 2026-04-28 22:06 | -43.67563 | 172.21415 | 6847 ft | 289 kts | 75° |
| 2026-04-28 22:06 | -43.67047 | 172.24089 | 6547 ft | 287 kts | 75° |
| 2026-04-28 22:06 | -43.66525 | 172.26793 | 5842 ft | 299 kts | 75° |
| 2026-04-28 22:07 | -43.65981 | 172.29624 | 5329 ft | 304 kts | 75° |
| 2026-04-28 22:07 | -43.65442 | 172.32397 | 5200 ft | 294 kts | 73° |
| 2026-04-28 22:07 | -43.64552 | 172.34864 | 5063 ft | 284 kts | 50° |
| 2026-04-28 22:07 | -43.63141 | 172.36704 | 4935 ft | 274 kts | 39° |
| 2026-04-28 22:08 | -43.61702 | 172.38373 | 4804 ft | 265 kts | 38° |
| 2026-04-28 22:08 | -43.60324 | 172.39959 | 4660 ft | 255 kts | 39° |
| 2026-04-28 22:08 | -43.58995 | 172.41502 | 4359 ft | 246 kts | 39° |
| 2026-04-28 22:08 | -43.57701 | 172.43005 | 3841 ft | 241 kts | 38° |
| 2026-04-28 22:09 | -43.56429 | 172.44482 | 3182 ft | 237 kts | 38° |
| 2026-04-28 22:09 | -43.55161 | 172.45953 | 2445 ft | 239 kts | 38° |
| 2026-04-28 22:09 | -43.53898 | 172.47421 | 1706 ft | 237 kts | 38° |
| 2026-04-28 22:09 | -43.52645 | 172.48872 | 975 ft | 234 kts | 38° |
| 2026-04-28 22:10 | -43.51438 | 172.50270 | 603 ft | 215 kts | 39° |
| 2026-04-28 22:10 | -43.50350 | 172.51529 | 354 ft | 193 kts | 40° |
| 2026-04-28 22:10 | -43.49332 | 172.52713 | 253 ft | 182 kts | 41° |
| 2026-04-28 22:10 | -43.48274 | 172.53971 | 649 ft | 215 kts | 40° |
| 2026-04-28 22:11 | -43.47000 | 172.55498 | 1127 ft | 250 kts | 40° |
| 2026-04-28 22:11 | -43.45736 | 172.57061 | 2384 ft | 253 kts | 40° |
| 2026-04-28 22:11 | -43.44402 | 172.58444 | 2791 ft | 232 kts | 20° |
| 2026-04-28 22:11 | -43.42864 | 172.58752 | 2960 ft | 221 kts | 346° |
| 2026-04-28 22:12 | -43.41509 | 172.57919 | 3004 ft | 213 kts | 320° |
| 2026-04-28 22:12 | -43.40405 | 172.56571 | 3010 ft | 212 kts | 312° |
| 2026-04-28 22:12 | -43.39403 | 172.55092 | 3008 ft | 210 kts | 301° |
| 2026-04-28 22:12 | -43.38983 | 172.53237 | 2986 ft | 204 kts | 267° |
| 2026-04-28 22:13 | -43.39435 | 172.51433 | 2758 ft | 203 kts | 232° |
| 2026-04-28 22:13 | -43.40452 | 172.50064 | 2450 ft | 206 kts | 222° |
| 2026-04-28 22:13 | -43.41565 | 172.48814 | 2187 ft | 207 kts | 220° |
| 2026-04-28 22:13 | -43.42688 | 172.47577 | 2030 ft | 208 kts | 220° |
| 2026-04-28 22:14 | -43.43818 | 172.46330 | 2012 ft | 208 kts | 221° |
| 2026-04-28 22:14 | -43.44949 | 172.45081 | 2013 ft | 209 kts | 220° |
| 2026-04-28 22:14 | -43.46085 | 172.43825 | 2010 ft | 209 kts | 221° |
| 2026-04-28 22:14 | -43.47219 | 172.42573 | 2007 ft | 209 kts | 220° |
| 2026-04-28 22:15 | -43.48358 | 172.41321 | 2014 ft | 210 kts | 220° |
| 2026-04-28 22:15 | -43.49510 | 172.40062 | 2006 ft | 213 kts | 221° |
| 2026-04-28 22:15 | -43.50678 | 172.38791 | 2013 ft | 214 kts | 220° |
| 2026-04-28 22:15 | -43.51848 | 172.37516 | 2013 ft | 214 kts | 220° |
| 2026-04-28 22:16 | -43.53100 | 172.36471 | 2000 ft | 214 kts | 197° |
| 2026-04-28 22:16 | -43.54536 | 172.36519 | 2003 ft | 208 kts | 160° |
| 2026-04-28 22:16 | -43.55698 | 172.37666 | 2005 ft | 207 kts | 132° |
| 2026-04-28 22:16 | -43.56468 | 172.39329 | 2009 ft | 207 kts | 111° |
| 2026-04-28 22:17 | -43.56775 | 172.41232 | 2012 ft | 201 kts | 90° |
| 2026-04-28 22:17 | -43.56603 | 172.43122 | 1928 ft | 198 kts | 71° |
| 2026-04-28 22:17 | -43.55984 | 172.44821 | 1746 ft | 201 kts | 50° |
| 2026-04-28 22:17 | -43.55004 | 172.46134 | 1520 ft | 193 kts | 38° |
| 2026-04-28 22:18 | -43.54010 | 172.47288 | 1280 ft | 178 kts | 37° |
| 2026-04-28 22:18 | -43.53123 | 172.48319 | 1039 ft | 158 kts | 37° |
| 2026-04-28 22:18 | -43.52307 | 172.49261 | 824 ft | 149 kts | 37° |
| 2026-04-28 22:18 | -43.51525 | 172.50166 | 646 ft | 145 kts | 39° |
| 2026-04-28 22:19 | -43.50758 | 172.51061 | 434 ft | 143 kts | 40° |
| 2026-04-28 22:19 | -43.49999 | 172.51934 | 251 ft | 142 kts | 40° |
| 2026-04-28 22:19 | -43.49504 | 172.52511 | 138 ft | 138 kts | 40° |
| 2026-04-28 22:19 | -43.48853 | 172.53259 | 114 ft | 101 kts | 40° |
| 2026-04-28 22:20 | -43.48520 | 172.53649 | 107 ft | 25 kts | 44° |
| 2026-04-28 22:20 | -43.48468 | 172.53862 | 106 ft | 21 kts | 72° |
| 2026-04-28 22:20 | -43.48538 | 172.53963 | 107 ft | 16 kts | 220° |
| 2026-04-28 22:20 | -43.48597 | 172.53890 | 109 ft | 18 kts | 219° |
| 2026-04-28 22:21 | -43.48698 | 172.53774 | 108 ft | 20 kts | 220° |
| 2026-04-28 22:21 | -43.48767 | 172.53732 | 107 ft | 8 kts | 124° |
| 2026-04-28 22:21 | -43.48788 | 172.53812 | 109 ft | 7 kts | 110° |
| 2026-04-28 22:21 | -43.48791 | 172.53823 | 109 ft | 0 kts | 110° |